| time (UTC) | temp F | wind direction | speed MPH | gust MPH | rain 1hr in | rain 24hr in | rain mn in | humidity % | barometer mb |
| 20260902200106 | 85 | 233 | 1.0 | 5.0 | 0.00 | 0.90 | 0.90 | 71 | 1014.4 |
| 20260902195606 | 85 | 107 | 0.0 | 4.0 | 0.00 | 0.90 | 0.90 | 73 | 1014.4 |
| 20260902195057 | 85 | 235 | 0.0 | 4.0 | 0.00 | 0.90 | 0.90 | 74 | 1014.2 |
| 20260902194605 | 84 | 0 | 0.0 | 9.0 | 0.00 | 0.90 | 0.90 | 74 | 1014.0 |
| 20260902194056 | 84 | 210 | 2.0 | 9.0 | 0.00 | 0.90 | 0.90 | 73 | 1014.1 |
| 20260902193559 | 84 | 218 | 4.0 | 8.0 | 0.00 | 0.90 | 0.90 | 72 | 1013.9 |
| 20260902193103 | 85 | 236 | 2.0 | 6.0 | 0.00 | 0.90 | 0.90 | 73 | 1014.1 |
| 20260902192558 | 85 | 103 | 0.0 | 6.0 | 0.00 | 0.90 | 0.90 | 74 | 1014.2 |
| 20260902192053 | 84 | 164 | 3.0 | 6.0 | 0.00 | 0.90 | 0.90 | 74 | 1014.2 |
| 20260902191606 | 84 | 290 | 0.0 | 6.0 | 0.00 | 0.90 | 0.90 | 72 | 1014.2 |
| 20260902191055 | 84 | 0 | 0.0 | 6.0 | 0.00 | 0.90 | 0.90 | 72 | 1014.1 |
| 20260902190555 | 84 | 153 | 1.0 | 4.0 | 0.00 | 0.90 | 0.90 | 72 | 1014.2 |
| 20260902190114 | 85 | 100 | 1.0 | 7.0 | 0.00 | 0.90 | 0.90 | 73 | 1014.2 |
| 20260902185558 | 85 | 217 | 1.0 | 8.0 | 0.00 | 0.90 | 0.90 | 72 | 1014.5 |
| 20260902185057 | 85 | 231 | 0.0 | 8.0 | 0.00 | 0.90 | 0.90 | 74 | 1014.6 |
| 20260902184559 | 85 | 0 | 1.0 | 4.0 | 0.00 | 0.90 | 0.90 | 74 | 1014.5 |
| 20260902184056 | 84 | 96 | 1.0 | 5.0 | 0.00 | 0.90 | 0.90 | 73 | 1014.5 |
| 20260902183554 | 85 | 191 | 1.0 | 6.0 | 0.00 | 0.90 | 0.90 | 75 | 1014.6 |
| 20260902183104 | 84 | 293 | 0.0 | 6.0 | 0.00 | 0.90 | 0.90 | 76 | 1014.8 |
| 20260902182556 | 84 | 289 | 2.0 | 10.0 | 0.00 | 0.90 | 0.90 | 74 | 1014.9 |
| 20260902182056 | 84 | 262 | 2.0 | 10.0 | 0.00 | 0.90 | 0.90 | 74 | 1014.9 |
| 20260902181605 | 84 | 129 | 4.0 | 10.0 | 0.00 | 0.90 | 0.90 | 74 | 1015.1 |
| 20260902181055 | 84 | 124 | 2.0 | 7.0 | 0.00 | 0.90 | 0.90 | 74 | 1015.2 |
| 20260902180554 | 84 | 263 | 0.0 | 6.0 | 0.00 | 0.90 | 0.90 | 75 | 1015.2 |
| 20260902175556 | 83 | 0 | 0.0 | 5.0 | 0.00 | 0.90 | 0.90 | 76 | 1015.1 |
| 20260902175054 | 82 | 224 | 1.0 | 5.0 | 0.00 | 0.90 | 0.90 | 76 | 1014.9 |
| 20260902174605 | 82 | 283 | 0.0 | 4.0 | 0.00 | 0.90 | 0.90 | 77 | 1014.9 |
| 20260902174057 | 82 | 108 | 1.0 | 6.0 | 0.00 | 0.90 | 0.90 | 78 | 1015.0 |
| 20260902173557 | 82 | 215 | 2.0 | 6.0 | 0.00 | 0.90 | 0.90 | 77 | 1015.1 |
| 20260902173109 | 81 | 250 | 1.0 | 7.0 | 0.00 | 0.90 | 0.90 | 78 | 1015.2 |
| 20260902172556 | 81 | 151 | 3.0 | 7.0 | 0.00 | 0.90 | 0.90 | 80 | 1015.2 |
| 20260902172056 | 81 | 302 | 1.0 | 7.0 | 0.00 | 0.90 | 0.90 | 80 | 1015.1 |
| 20260902171606 | 80 | 200 | 1.0 | 5.0 | 0.00 | 0.90 | 0.90 | 80 | 1015.1 |
| 20260902171057 | 79 | 235 | 0.0 | 5.0 | 0.00 | 0.90 | 0.90 | 81 | 1015.2 |
| 20260902170557 | 79 | 0 | 0.0 | 2.0 | 0.00 | 0.90 | 0.90 | 85 | 1015.2 |
| 20260902170103 | 78 | 0 | 0.0 | 8.0 | 0.00 | 0.90 | 0.90 | 87 | 1015.1 |
| 20260902165555 | 77 | 222 | 0.0 | 9.0 | 0.00 | 0.90 | 0.90 | 87 | 1015.2 |
| 20260902165056 | 76 | 105 | 1.0 | 9.0 | 0.00 | 0.90 | 0.90 | 87 | 1015.2 |
| 20260902164610 | 76 | 124 | 3.0 | 9.0 | 0.00 | 0.90 | 0.90 | 87 | 1015.4 |
| 20260902164055 | 75 | 0 | 1.0 | 9.0 | 0.00 | 0.90 | 0.90 | 91 | 1015.4 |
| 20260902163553 | 75 | 219 | 1.0 | 6.0 | 0.00 | 0.90 | 0.90 | 93 | 1015.3 |
| 20260902163104 | 74 | 117 | 0.0 | 4.0 | 0.00 | 0.90 | 0.90 | 95 | 1015.2 |
| 20260902162556 | 73 | 249 | 1.0 | 7.0 | 0.00 | 0.90 | 0.90 | 95 | 1015.2 |
| 20260902162056 | 73 | 115 | 0.0 | 7.0 | 0.00 | 0.90 | 0.90 | 95 | 1015.3 |
| 20260902161606 | 73 | 58 | 1.0 | 7.0 | 0.01 | 0.90 | 0.90 | 95 | 1015.4 |
| 20260902161055 | 73 | 200 | 0.0 | 12.0 | 0.02 | 0.90 | 0.90 | 96 | 1015.4 |
| 20260902160554 | 72 | 224 | 1.0 | 12.0 | 0.03 | 0.90 | 0.90 | 96 | 1015.5 |
| 20260902160121 | 72 | 0 | 0.0 | 4.0 | 0.05 | 0.90 | 0.90 | 97 | 1015.4 |
| 20260902155555 | 71 | 221 | 0.0 | 4.0 | 0.06 | 0.90 | 0.90 | 97 | 1015.5 |
| 20260902155057 | 71 | 0 | 0.0 | 3.0 | 0.08 | 0.90 | 0.90 | 97 | 1015.4 |
| 20260902154605 | 70 | 0 | 0.0 | 3.0 | 0.10 | 0.90 | 0.90 | 97 | 1015.5 |
| 20260902154057 | 69 | 100 | 0.0 | 1.0 | 0.12 | 0.90 | 0.90 | 97 | 1015.8 |
| 20260902153557 | 69 | 0 | 0.0 | 1.0 | 0.13 | 0.90 | 0.90 | 96 | 1016.0 |
| 20260902153104 | 69 | 103 | 0.0 | 1.0 | 0.15 | 0.90 | 0.90 | 96 | 1016.1 |
| 20260902152553 | 68 | 0 | 0.0 | 1.0 | 0.17 | 0.90 | 0.90 | 96 | 1016.2 |
| 20260902152055 | 68 | 0 | 0.0 | 1.0 | 0.19 | 0.90 | 0.90 | 96 | 1016.4 |
| 20260902151614 | 68 | 241 | 0.0 | 1.0 | 0.47 | 0.89 | 0.89 | 96 | 1016.5 |
| 20260902151053 | 68 | 0 | 0.0 | 1.0 | 0.62 | 0.88 | 0.88 | 96 | 1016.8 |
| 20260902150554 | 68 | 0 | 0.0 | 0.0 | 0.68 | 0.86 | 0.86 | 96 | 1016.7 |
| 20260902150116 | 68 | 0 | 0.0 | 1.0 | 0.69 | 0.85 | 0.85 | 96 | 1016.7 |
| 20260902145557 | 68 | 0 | 0.0 | 1.0 | 0.69 | 0.84 | 0.84 | 96 | 1017.0 |
| 20260902145056 | 68 | 0 | 0.0 | 0.0 | 0.68 | 0.82 | 0.82 | 96 | 1017.4 |
| 20260902144604 | 68 | 0 | 0.0 | 0.0 | 0.67 | 0.80 | 0.80 | 96 | 1017.8 |
| 20260902144054 | 68 | 0 | 0.0 | 2.0 | 0.67 | 0.78 | 0.78 | 96 | 1017.7 |
| 20260902143556 | 68 | 0 | 0.0 | 2.0 | 0.67 | 0.77 | 0.77 | 96 | 1017.7 |
| 20260902143110 | 68 | 0 | 0.0 | 3.0 | 0.67 | 0.75 | 0.75 | 96 | 1017.6 |
| 20260902142556 | 68 | 0 | 0.0 | 4.0 | 0.67 | 0.73 | 0.73 | 96 | 1017.9 |
| 20260902142101 | 68 | 0 | 1.0 | 7.0 | 0.65 | 0.70 | 0.70 | 96 | 1017.9 |
| 20260902141600 | 68 | 326 | 3.0 | 7.0 | 0.38 | 0.41 | 0.41 | 96 | 1018.6 |
| 20260902141059 | 68 | 331 | 1.0 | 5.0 | 0.25 | 0.26 | 0.26 | 96 | 1018.2 |
| 20260902140556 | 68 | 0 | 0.0 | 0.0 | 0.18 | 0.18 | 0.18 | 96 | 1017.3 |
| 20260902140107 | 68 | 0 | 0.0 | 0.0 | 0.16 | 0.16 | 0.16 | 96 | 1017.0 |
| 20260902135556 | 68 | 0 | 0.0 | 0.0 | 0.15 | 0.15 | 0.15 | 96 | 1016.5 |
| 20260902135056 | 68 | 0 | 0.0 | 0.0 | 0.14 | 0.14 | 0.14 | 96 | 1016.3 |
| 20260902134610 | 67 | 0 | 0.0 | 0.0 | 0.13 | 0.13 | 0.13 | 96 | 1016.5 |
| 20260902134055 | 67 | 0 | 0.0 | 0.0 | 0.11 | 0.11 | 0.11 | 96 | 1016.5 |
| 20260902133556 | 67 | 0 | 0.0 | 0.0 | 0.10 | 0.10 | 0.10 | 96 | 1016.3 |
| 20260902133108 | 67 | 0 | 0.0 | 0.0 | 0.08 | 0.08 | 0.08 | 96 | 1016.3 |
| 20260902132557 | 67 | 0 | 0.0 | 0.0 | 0.06 | 0.06 | 0.06 | 96 | 1016.7 |
| 20260902132056 | 67 | 0 | 0.0 | 0.0 | 0.05 | 0.05 | 0.05 | 96 | 1016.7 |
| 20260902131607 | 67 | 0 | 0.0 | 0.0 | 0.03 | 0.03 | 0.03 | 96 | 1016.8 |
| 20260902131059 | 67 | 0 | 0.0 | 0.0 | 0.01 | 0.01 | 0.01 | 96 | 1016.9 |
| 20260902130555 | 67 | 0 | 0.0 | 0.0 | 0.00 | 0.00 | 0.00 | 96 | 1016.8 |
| 20260902130104 | 67 | 0 | 0.0 | 0.0 | 0.00 | 0.00 | 0.00 | 96 | 1016.8 |
| 20260902125559 | 67 | 0 | 0.0 | 0.0 | 0.00 | 0.00 | 0.00 | 96 | 1016.8 |
| 20260902125058 | 67 | 0 | 0.0 | 0.0 | 0.00 | 0.00 | 0.00 | 96 | 1016.9 |
| 20260902124603 | 67 | 0 | 0.0 | 0.0 | 0.00 | 0.00 | 0.00 | 96 | 1016.8 |
| 20260902124058 | 67 | 0 | 0.0 | 0.0 | 0.00 | 0.00 | 0.00 | 96 | 1016.6 |
| 20260902123555 | 67 | 0 | 0.0 | 0.0 | 0.00 | 0.00 | 0.00 | 96 | 1016.4 |
| 20260902123104 | 67 | 0 | 0.0 | 0.0 | 0.00 | 0.00 | 0.00 | 96 | 1016.3 |
| 20260902122556 | 67 | 0 | 0.0 | 0.0 | 0.00 | 0.00 | 0.00 | 96 | 1016.3 |
| 20260902122056 | 67 | 0 | 0.0 | 0.0 | 0.00 | 0.00 | 0.00 | 96 | 1016.3 |
| 20260902121601 | 67 | 0 | 0.0 | 0.0 | 0.00 | 0.00 | 0.00 | 96 | 1016.3 |
| 20260902121056 | 67 | 0 | 0.0 | 0.0 | 0.00 | 0.00 | 0.00 | 96 | 1016.3 |
| 20260902120553 | 67 | 0 | 0.0 | 0.0 | 0.00 | 0.00 | 0.00 | 96 | 1016.2 |
| 20260902120104 | 67 | 0 | 0.0 | 0.0 | 0.00 | 0.00 | 0.00 | 96 | 1016.0 |
| 20260902115556 | 67 | 0 | 0.0 | 0.0 | 0.00 | 0.00 | 0.00 | 96 | 1015.6 |
| 20260902115056 | 67 | 0 | 0.0 | 0.0 | 0.00 | 0.00 | 0.00 | 96 | 1015.7 |
| 20260902114603 | 67 | 0 | 0.0 | 0.0 | 0.00 | 0.00 | 0.00 | 96 | 1015.7 |
| 20260902114057 | 67 | 0 | 0.0 | 0.0 | 0.00 | 0.00 | 0.00 | 96 | 1015.5 |
| 20260902113556 | 67 | 0 | 0.0 | 0.0 | 0.00 | 0.00 | 0.00 | 96 | 1015.5 |
| 20260902113106 | 67 | 0 | 0.0 | 0.0 | 0.00 | 0.00 | 0.00 | 96 | 1015.5 |
| 20260902112553 | 66 | 0 | 0.0 | 1.0 | 0.00 | 0.00 | 0.00 | 96 | 1015.6 |
| 20260902112059 | 66 | 0 | 0.0 | 2.0 | 0.00 | 0.00 | 0.00 | 96 | 1015.5 |
| 20260902111602 | 66 | 105 | 0.0 | 2.0 | 0.00 | 0.00 | 0.00 | 96 | 1015.4 |
| 20260902111057 | 66 | 0 | 0.0 | 1.0 | 0.00 | 0.00 | 0.00 | 96 | 1015.4 |
| 20260902110557 | 66 | 0 | 0.0 | 1.0 | 0.00 | 0.00 | 0.00 | 96 | 1015.4 |
| 20260902110104 | 66 | 0 | 0.0 | 2.0 | 0.00 | 0.00 | 0.00 | 96 | 1015.4 |
| 20260902105559 | 66 | 0 | 0.0 | 2.0 | 0.00 | 0.00 | 0.00 | 96 | 1015.5 |
| 20260902105056 | 66 | 130 | 0.0 | 1.0 | 0.00 | 0.00 | 0.00 | 96 | 1015.4 |
| 20260902104624 | 66 | 0 | 0.0 | 1.0 | 0.00 | 0.00 | 0.00 | 96 | 1015.3 |
| 20260902104056 | 66 | 0 | 0.0 | 1.0 | 0.00 | 0.00 | 0.00 | 96 | 1015.4 |
| 20260902103556 | 66 | 0 | 0.0 | 1.0 | 0.00 | 0.00 | 0.00 | 96 | 1015.4 |
| 20260902103101 | 66 | 0 | 0.0 | 2.0 | 0.00 | 0.00 | 0.00 | 96 | 1015.5 |
| 20260902102557 | 66 | 0 | 0.0 | 2.0 | 0.00 | 0.00 | 0.00 | 96 | 1015.5 |
| 20260902102058 | 66 | 0 | 0.0 | 2.0 | 0.00 | 0.00 | 0.00 | 96 | 1015.6 |
| 20260902101606 | 66 | 108 | 0.0 | 2.0 | 0.00 | 0.00 | 0.00 | 96 | 1015.7 |
| 20260902101056 | 66 | 0 | 0.0 | 0.0 | 0.00 | 0.00 | 0.00 | 96 | 1015.7 |
| 20260902100556 | 66 | 0 | 0.0 | 0.0 | 0.00 | 0.00 | 0.00 | 96 | 1015.8 |
| 20260902100128 | 66 | 0 | 0.0 | 0.0 | 0.00 | 0.00 | 0.00 | 96 | 1015.9 |
| 20260902095600 | 66 | 0 | 0.0 | 0.0 | 0.00 | 0.01 | 0.00 | 96 | 1016.0 |
| 20260902095101 | 66 | 0 | 0.0 | 0.0 | 0.00 | 0.01 | 0.00 | 96 | 1015.9 |
| 20260902094606 | 66 | 0 | 0.0 | 0.0 | 0.00 | 0.01 | 0.00 | 96 | 1015.9 |
| 20260902094053 | 66 | 0 | 0.0 | 0.0 | 0.00 | 0.01 | 0.00 | 96 | 1016.2 |
| 20260902093554 | 66 | 0 | 0.0 | 0.0 | 0.00 | 0.01 | 0.00 | 96 | 1016.0 |
| 20260902093125 | 66 | 0 | 0.0 | 0.0 | 0.00 | 0.01 | 0.00 | 95 | 1016.1 |
| 20260902092552 | 66 | 0 | 0.0 | 0.0 | 0.00 | 0.01 | 0.00 | 95 | 1016.1 |
| 20260902092056 | 66 | 0 | 0.0 | 0.0 | 0.00 | 0.01 | 0.00 | 95 | 1016.1 |
| 20260902091624 | 66 | 0 | 0.0 | 0.0 | 0.00 | 0.01 | 0.00 | 95 | 1016.1 |
| 20260902091056 | 66 | 0 | 0.0 | 0.0 | 0.00 | 0.01 | 0.00 | 95 | 1016.2 |
| 20260902090556 | 66 | 0 | 0.0 | 0.0 | 0.00 | 0.01 | 0.00 | 95 | 1016.0 |
| 20260902090106 | 66 | 0 | 0.0 | 0.0 | 0.00 | 0.01 | 0.00 | 95 | 1016.0 |
| 20260902085600 | 66 | 0 | 0.0 | 0.0 | 0.00 | 0.01 | 0.00 | 95 | 1016.0 |
| 20260902085056 | 66 | 0 | 0.0 | 0.0 | 0.00 | 0.01 | 0.00 | 95 | 1016.1 |
| 20260902084604 | 66 | 0 | 0.0 | 0.0 | 0.00 | 0.01 | 0.00 | 95 | 1016.3 |
| 20260902084058 | 66 | 0 | 0.0 | 0.0 | 0.00 | 0.01 | 0.00 | 95 | 1016.2 |
| 20260902083555 | 66 | 0 | 0.0 | 0.0 | 0.00 | 0.01 | 0.00 | 95 | 1016.3 |
| 20260902083111 | 66 | 0 | 0.0 | 0.0 | 0.00 | 0.01 | 0.00 | 95 | 1016.4 |
| 20260902082552 | 66 | 0 | 0.0 | 0.0 | 0.00 | 0.01 | 0.00 | 95 | 1016.5 |
| 20260902082056 | 66 | 0 | 0.0 | 0.0 | 0.00 | 0.01 | 0.00 | 95 | 1016.3 |
| 20260902081619 | 66 | 0 | 0.0 | 0.0 | 0.00 | 0.01 | 0.00 | 95 | 1016.3 |
| 20260902081057 | 66 | 0 | 0.0 | 0.0 | 0.00 | 0.01 | 0.00 | 95 | 1016.3 |
| 20260902080556 | 66 | 0 | 0.0 | 0.0 | 0.00 | 0.01 | 0.00 | 95 | 1016.4 |
| 20260902080107 | 66 | 0 | 0.0 | 0.0 | 0.00 | 0.01 | 0.00 | 95 | 1016.3 |
| 20260902075555 | 65 | 0 | 0.0 | 0.0 | 0.00 | 0.01 | 0.00 | 95 | 1016.3 |
| 20260902075100 | 65 | 0 | 0.0 | 0.0 | 0.00 | 0.01 | 0.00 | 95 | 1016.3 |
| 20260902074606 | 65 | 0 | 0.0 | 0.0 | 0.00 | 0.01 | 0.00 | 95 | 1016.3 |
| 20260902074054 | 65 | 0 | 0.0 | 0.0 | 0.00 | 0.01 | 0.00 | 95 | 1016.2 |
| 20260902073556 | 65 | 0 | 0.0 | 0.0 | 0.00 | 0.01 | 0.00 | 95 | 1016.2 |
| 20260902073101 | 65 | 0 | 0.0 | 0.0 | 0.00 | 0.01 | 0.00 | 95 | 1016.3 |
| 20260902072554 | 64 | 0 | 0.0 | 0.0 | 0.00 | 0.01 | 0.00 | 95 | 1016.2 |
| 20260902072058 | 64 | 0 | 0.0 | 0.0 | 0.00 | 0.01 | 0.00 | 95 | 1016.3 |
| 20260902071624 | 64 | 0 | 0.0 | 0.0 | 0.00 | 0.01 | 0.00 | 95 | 1016.1 |
| 20260902071057 | 63 | 0 | 0.0 | 0.0 | 0.00 | 0.01 | 0.00 | 95 | 1016.2 |
| 20260902070553 | 63 | 0 | 0.0 | 0.0 | 0.00 | 0.01 | 0.00 | 95 | 1016.1 |
| 20260902070100 | 63 | 0 | 0.0 | 0.0 | 0.00 | 0.01 | 0.00 | 95 | 1016.1 |
| 20260902065555 | 63 | 0 | 0.0 | 0.0 | 0.00 | 0.07 | 0.00 | 95 | 1016.1 |
| 20260902065056 | 63 | 0 | 0.0 | 0.0 | 0.00 | 0.07 | 0.00 | 95 | 1016.2 |
| 20260902064608 | 63 | 0 | 0.0 | 0.0 | 0.00 | 0.07 | 0.00 | 95 | 1016.2 |
| 20260902064056 | 63 | 0 | 0.0 | 0.0 | 0.00 | 0.07 | 0.00 | 95 | 1016.2 |
| 20260902063556 | 63 | 0 | 0.0 | 0.0 | 0.00 | 0.07 | 0.00 | 94 | 1016.2 |
| 20260902063133 | 63 | 0 | 0.0 | 0.0 | 0.00 | 0.07 | 0.00 | 94 | 1016.2 |
| 20260902062554 | 63 | 0 | 0.0 | 0.0 | 0.00 | 0.07 | 0.00 | 94 | 1016.1 |
| 20260902062054 | 63 | 0 | 0.0 | 0.0 | 0.00 | 0.07 | 0.00 | 94 | 1016.2 |
| 20260902061559 | 63 | 0 | 0.0 | 0.0 | 0.00 | 0.07 | 0.00 | 94 | 1016.4 |
| 20260902061054 | 63 | 0 | 0.0 | 0.0 | 0.00 | 0.07 | 0.00 | 94 | 1016.4 |
| 20260902060554 | 63 | 0 | 0.0 | 0.0 | 0.00 | 0.07 | 0.00 | 94 | 1016.4 |
| 20260902060137 | 63 | 0 | 0.0 | 0.0 | 0.00 | 0.07 | 0.00 | 94 | 1016.4 |
| 20260902055554 | 63 | 0 | 0.0 | 0.0 | 0.00 | 0.07 | 0.00 | 94 | 1016.3 |
| 20260902055054 | 63 | 0 | 0.0 | 0.0 | 0.00 | 0.07 | 0.00 | 94 | 1016.3 |
| 20260902054603 | 63 | 0 | 0.0 | 0.0 | 0.00 | 0.07 | 0.00 | 94 | 1016.2 |
| 20260902054058 | 63 | 0 | 0.0 | 0.0 | 0.00 | 0.07 | 0.00 | 94 | 1016.2 |
| 20260902053557 | 63 | 0 | 0.0 | 0.0 | 0.00 | 0.07 | 0.00 | 94 | 1016.2 |
| 20260902053102 | 63 | 0 | 0.0 | 0.0 | 0.00 | 0.07 | 0.00 | 94 | 1016.1 |
| 20260902052556 | 63 | 0 | 0.0 | 0.0 | 0.00 | 0.07 | 0.00 | 94 | 1016.2 |
| 20260902052055 | 63 | 0 | 0.0 | 0.0 | 0.00 | 0.07 | 0.00 | 94 | 1016.3 |
| 20260902051613 | 64 | 0 | 0.0 | 0.0 | 0.00 | 0.07 | 0.00 | 94 | 1016.1 |
| 20260902051056 | 64 | 0 | 0.0 | 0.0 | 0.00 | 0.07 | 0.00 | 94 | 1016.2 |
| 20260902050553 | 64 | 0 | 0.0 | 0.0 | 0.00 | 0.07 | 0.00 | 94 | 1016.2 |
| 20260902050108 | 64 | 0 | 0.0 | 0.0 | 0.00 | 0.07 | 0.00 | 94 | 1016.2 |
| 20260902045557 | 64 | 0 | 0.0 | 0.0 | 0.00 | 0.07 | 0.00 | 94 | 1016.1 |
| 20260902045054 | 64 | 0 | 0.0 | 0.0 | 0.00 | 0.07 | 0.00 | 94 | 1016.2 |
| 20260902044601 | 64 | 0 | 0.0 | 0.0 | 0.00 | 0.07 | 0.00 | 94 | 1016.1 |
| 20260902044056 | 64 | 0 | 0.0 | 0.0 | 0.00 | 0.07 | 0.00 | 93 | 1016.2 |
| 20260902043555 | 64 | 0 | 0.0 | 0.0 | 0.00 | 0.07 | 0.00 | 94 | 1016.3 |
| 20260902043110 | 64 | 0 | 0.0 | 0.0 | 0.00 | 0.07 | 0.00 | 93 | 1016.2 |
| 20260902042558 | 65 | 0 | 0.0 | 0.0 | 0.00 | 0.07 | 0.00 | 93 | 1016.1 |
| 20260902042056 | 65 | 0 | 0.0 | 0.0 | 0.00 | 0.07 | 0.00 | 93 | 1016.1 |
| 20260902041605 | 65 | 0 | 0.0 | 0.0 | 0.00 | 0.07 | 0.00 | 93 | 1016.2 |
| 20260902041058 | 65 | 0 | 0.0 | 0.0 | 0.00 | 0.07 | 0.00 | 93 | 1016.2 |
| 20260902040600 | 65 | 0 | 0.0 | 0.0 | 0.00 | 0.07 | 0.00 | 93 | 1016.0 |
| 20260902040107 | 65 | 0 | 0.0 | 0.0 | 0.00 | 0.07 | 0.00 | 93 | 1016.1 |
| 20260902035558 | 65 | 0 | 0.0 | 0.0 | 0.00 | 0.07 | 0.07 | 93 | 1015.9 |
| 20260902035058 | 65 | 0 | 0.0 | 0.0 | 0.00 | 0.07 | 0.07 | 93 | 1016.0 |
| 20260902034601 | 65 | 0 | 0.0 | 0.0 | 0.00 | 0.07 | 0.07 | 93 | 1015.9 |
| 20260902034057 | 66 | 0 | 0.0 | 0.0 | 0.00 | 0.07 | 0.07 | 93 | 1016.0 |
| 20260902033559 | 66 | 0 | 0.0 | 0.0 | 0.00 | 0.07 | 0.07 | 93 | 1016.0 |
| 20260902033117 | 66 | 0 | 0.0 | 0.0 | 0.00 | 0.07 | 0.07 | 93 | 1016.0 |
| 20260902032557 | 66 | 0 | 0.0 | 0.0 | 0.00 | 0.07 | 0.07 | 93 | 1016.0 |
| 20260902032056 | 66 | 0 | 0.0 | 0.0 | 0.00 | 0.07 | 0.07 | 93 | 1016.1 |
| 20260902031606 | 66 | 0 | 0.0 | 0.0 | 0.00 | 0.07 | 0.07 | 92 | 1016.0 |
| 20260902031056 | 67 | 0 | 0.0 | 0.0 | 0.00 | 0.07 | 0.07 | 92 | 1016.1 |
| 20260902030556 | 67 | 0 | 0.0 | 0.0 | 0.00 | 0.07 | 0.07 | 92 | 1016.1 |
| 20260902025556 | 67 | 0 | 0.0 | 0.0 | 0.00 | 0.08 | 0.07 | 92 | 1016.1 |
| 20260902025059 | 67 | 0 | 0.0 | 0.0 | 0.00 | 0.08 | 0.07 | 92 | 1016.0 |
| 20260902024618 | 67 | 0 | 0.0 | 0.0 | 0.00 | 0.08 | 0.07 | 92 | 1015.9 |
| 20260902024055 | 68 | 0 | 0.0 | 0.0 | 0.00 | 0.08 | 0.07 | 92 | 1016.0 |
| 20260902023557 | 68 | 0 | 0.0 | 0.0 | 0.00 | 0.08 | 0.07 | 92 | 1016.1 |
| 20260902023102 | 68 | 0 | 0.0 | 0.0 | 0.00 | 0.08 | 0.07 | 92 | 1016.1 |
| 20260902022600 | 68 | 0 | 0.0 | 0.0 | 0.00 | 0.08 | 0.07 | 91 | 1016.1 |
| 20260902022057 | 69 | 0 | 0.0 | 0.0 | 0.00 | 0.08 | 0.07 | 91 | 1016.0 |
| 20260902021604 | 69 | 0 | 0.0 | 0.0 | 0.00 | 0.08 | 0.07 | 91 | 1016.2 |
| 20260902021056 | 69 | 0 | 0.0 | 0.0 | 0.00 | 0.08 | 0.07 | 91 | 1016.1 |
| 20260902020556 | 70 | 0 | 0.0 | 0.0 | 0.00 | 0.08 | 0.07 | 91 | 1016.1 |
| 20260902020138 | 70 | 0 | 0.0 | 0.0 | 0.00 | 0.08 | 0.07 | 91 | 1016.1 |
| 20260902015555 | 70 | 0 | 0.0 | 0.0 | 0.00 | 0.08 | 0.07 | 91 | 1016.0 |
| 20260902015056 | 70 | 0 | 0.0 | 0.0 | 0.00 | 0.08 | 0.07 | 91 | 1016.0 |
| 20260902014603 | 70 | 0 | 0.0 | 0.0 | 0.00 | 0.08 | 0.07 | 91 | 1016.0 |
| 20260902014055 | 71 | 0 | 0.0 | 0.0 | 0.00 | 0.08 | 0.07 | 91 | 1016.1 |
| 20260902013556 | 71 | 0 | 0.0 | 0.0 | 0.00 | 0.08 | 0.07 | 91 | 1016.2 |
| 20260902013111 | 71 | 0 | 0.0 | 0.0 | 0.00 | 0.08 | 0.07 | 91 | 1016.2 |
| 20260902012554 | 71 | 0 | 0.0 | 0.0 | 0.00 | 0.08 | 0.07 | 91 | 1016.1 |
| 20260902012057 | 71 | 0 | 0.0 | 0.0 | 0.00 | 0.08 | 0.07 | 91 | 1016.0 |
| 20260902011606 | 71 | 0 | 0.0 | 0.0 | 0.00 | 0.08 | 0.07 | 91 | 1015.8 |
| 20260902011054 | 71 | 0 | 0.0 | 0.0 | 0.00 | 0.08 | 0.07 | 91 | 1015.8 |
| 20260902010554 | 71 | 0 | 0.0 | 0.0 | 0.00 | 0.08 | 0.07 | 91 | 1015.8 |
| 20260902010104 | 71 | 0 | 0.0 | 0.0 | 0.00 | 0.08 | 0.07 | 90 | 1015.7 |
| 20260902005558 | 71 | 0 | 0.0 | 0.0 | 0.00 | 0.09 | 0.07 | 90 | 1015.6 |
| 20260902005054 | 71 | 0 | 0.0 | 0.0 | 0.00 | 0.09 | 0.07 | 90 | 1015.6 |
| 20260902004606 | 72 | 0 | 0.0 | 0.0 | 0.00 | 0.09 | 0.07 | 90 | 1015.3 |
| 20260902004054 | 72 | 0 | 0.0 | 0.0 | 0.00 | 0.09 | 0.07 | 90 | 1015.3 |
| 20260902003554 | 72 | 0 | 0.0 | 0.0 | 0.00 | 0.09 | 0.07 | 89 | 1015.1 |
| 20260902003105 | 72 | 0 | 0.0 | 0.0 | 0.00 | 0.09 | 0.07 | 89 | 1015.0 |
| 20260902002554 | 72 | 0 | 0.0 | 0.0 | 0.00 | 0.09 | 0.07 | 89 | 1014.9 |
| 20260902002054 | 72 | 0 | 0.0 | 0.0 | 0.00 | 0.09 | 0.07 | 89 | 1014.8 |
| 20260902001604 | 72 | 0 | 0.0 | 0.0 | 0.00 | 0.09 | 0.07 | 88 | 1014.7 |
| 20260902001054 | 73 | 0 | 0.0 | 0.0 | 0.00 | 0.09 | 0.07 | 88 | 1014.7 |
| 20260902000553 | 73 | 0 | 0.0 | 0.0 | 0.00 | 0.09 | 0.07 | 87 | 1014.6 |
| 20260902000105 | 74 | 0 | 0.0 | 0.0 | 0.00 | 0.09 | 0.07 | 87 | 1014.5 |
| 20260901235554 | 74 | 0 | 0.0 | 0.0 | 0.00 | 0.09 | 0.07 | 86 | 1014.5 |
| 20260901235054 | 75 | 0 | 0.0 | 0.0 | 0.00 | 0.09 | 0.07 | 85 | 1014.6 |
| 20260901234613 | 75 | 0 | 0.0 | 0.0 | 0.00 | 0.09 | 0.07 | 85 | 1014.6 |
| 20260901234057 | 76 | 0 | 0.0 | 0.0 | 0.00 | 0.09 | 0.07 | 84 | 1014.5 |
| 20260901233555 | 76 | 0 | 0.0 | 0.0 | 0.00 | 0.09 | 0.07 | 83 | 1014.6 |
| 20260901233104 | 77 | 0 | 0.0 | 0.0 | 0.00 | 0.09 | 0.07 | 83 | 1014.6 |
| 20260901232556 | 78 | 0 | 0.0 | 0.0 | 0.00 | 0.09 | 0.07 | 82 | 1014.6 |
| 20260901232054 | 78 | 0 | 0.0 | 0.0 | 0.00 | 0.09 | 0.07 | 82 | 1014.6 |
| 20260901231606 | 79 | 0 | 0.0 | 0.0 | 0.00 | 0.09 | 0.07 | 82 | 1014.6 |
| 20260901231054 | 79 | 0 | 0.0 | 0.0 | 0.00 | 0.09 | 0.07 | 83 | 1014.6 |
| 20260901230554 | 79 | 0 | 0.0 | 0.0 | 0.00 | 0.09 | 0.07 | 83 | 1014.6 |
| 20260901230106 | 79 | 0 | 0.0 | 0.0 | 0.00 | 0.09 | 0.07 | 82 | 1014.6 |
| 20260901225554 | 79 | 0 | 0.0 | 0.0 | 0.00 | 0.10 | 0.07 | 81 | 1014.6 |
| 20260901225054 | 79 | 0 | 0.0 | 0.0 | 0.00 | 0.10 | 0.07 | 81 | 1014.6 |
| 20260901224609 | 79 | 0 | 0.0 | 0.0 | 0.00 | 0.10 | 0.07 | 81 | 1014.6 |
| 20260901224053 | 79 | 0 | 0.0 | 0.0 | 0.00 | 0.10 | 0.07 | 81 | 1014.6 |
| 20260901223554 | 80 | 0 | 0.0 | 0.0 | 0.00 | 0.10 | 0.07 | 80 | 1014.7 |
| 20260901223117 | 80 | 0 | 0.0 | 0.0 | 0.00 | 0.10 | 0.07 | 78 | 1014.7 |
| 20260901222557 | 81 | 0 | 0.0 | 0.0 | 0.00 | 0.10 | 0.07 | 77 | 1014.7 |
| 20260901222054 | 81 | 0 | 0.0 | 0.0 | 0.00 | 0.10 | 0.07 | 77 | 1014.7 |
| 20260901221633 | 82 | 0 | 0.0 | 0.0 | 0.00 | 0.10 | 0.07 | 74 | 1014.6 |
| 20260901221054 | 82 | 0 | 0.0 | 0.0 | 0.00 | 0.10 | 0.07 | 73 | 1014.6 |
| 20260901220553 | 83 | 0 | 0.0 | 0.0 | 0.00 | 0.10 | 0.07 | 74 | 1014.5 |
| 20260901220124 | 83 | 0 | 0.0 | 2.0 | 0.00 | 0.10 | 0.07 | 73 | 1014.5 |
| 20260901215554 | 84 | 0 | 0.0 | 2.0 | 0.00 | 0.11 | 0.07 | 71 | 1014.5 |
| 20260901215055 | 84 | 290 | 0.0 | 1.0 | 0.00 | 0.11 | 0.07 | 71 | 1014.4 |
| 20260901214607 | 84 | 0 | 0.0 | 1.0 | 0.00 | 0.11 | 0.07 | 72 | 1014.3 |
| 20260901214056 | 83 | 0 | 0.0 | 2.0 | 0.00 | 0.11 | 0.07 | 73 | 1014.3 |
| 20260901213556 | 83 | 0 | 0.0 | 2.0 | 0.00 | 0.11 | 0.07 | 74 | 1014.3 |
| 20260901213107 | 83 | 0 | 0.0 | 1.0 | 0.00 | 0.11 | 0.07 | 73 | 1014.4 |
| 20260901212555 | 82 | 0 | 0.0 | 0.0 | 0.00 | 0.11 | 0.07 | 73 | 1014.4 |
| 20260901212054 | 82 | 0 | 0.0 | 1.0 | 0.00 | 0.11 | 0.07 | 76 | 1014.5 |
| 20260901211603 | 82 | 0 | 0.0 | 1.0 | 0.00 | 0.11 | 0.07 | 75 | 1014.5 |
| 20260901211054 | 82 | 297 | 0.0 | 1.0 | 0.00 | 0.11 | 0.07 | 75 | 1014.5 |
| 20260901210553 | 82 | 0 | 0.0 | 1.0 | 0.00 | 0.11 | 0.07 | 74 | 1014.4 |
| 20260901210100 | 81 | 0 | 0.0 | 2.0 | 0.00 | 0.11 | 0.07 | 77 | 1014.4 |
| 20260901205556 | 80 | 0 | 0.0 | 2.0 | 0.00 | 0.11 | 0.07 | 78 | 1014.3 |
| 20260901205057 | 80 | 288 | 0.0 | 2.0 | 0.00 | 0.11 | 0.07 | 77 | 1014.5 |
| 20260901204602 | 80 | 0 | 0.0 | 0.0 | 0.00 | 0.11 | 0.07 | 79 | 1014.6 |
| 20260901204056 | 80 | 0 | 0.0 | 1.0 | 0.00 | 0.11 | 0.07 | 79 | 1014.6 |
| 20260901203556 | 80 | 0 | 0.0 | 2.0 | 0.00 | 0.11 | 0.07 | 78 | 1014.6 |
| 20260901203106 | 80 | 0 | 0.0 | 2.0 | 0.00 | 0.11 | 0.07 | 78 | 1014.6 |
| 20260901202554 | 80 | 300 | 0.0 | 2.0 | 0.00 | 0.11 | 0.07 | 77 | 1014.6 |
| 20260901202053 | 79 | 0 | 0.0 | 3.0 | 0.00 | 0.11 | 0.07 | 78 | 1014.5 |
| 20260901201600 | 80 | 0 | 1.0 | 5.0 | 0.00 | 0.11 | 0.07 | 78 | 1014.5 |
| 20260901201054 | 80 | 284 | 1.0 | 5.0 | 0.00 | 0.11 | 0.07 | 76 | 1014.5 |
| 20260901200553 | 80 | 283 | 1.0 | 5.0 | 0.00 | 0.11 | 0.07 | 76 | 1014.6 |